createdAt,value
2018-04-10T05:07:39.989Z,50.26
2018-04-10T05:10:08.599Z,51.79
2018-04-10T05:12:37.257Z,50.62
2018-04-10T05:15:06.107Z,51.25
2018-04-10T05:17:34.555Z,50.50
2018-04-10T05:20:03.000Z,52.86
2018-04-10T05:22:31.396Z,48.48
2018-04-10T05:25:00.105Z,48.14
2018-04-10T05:27:28.998Z,49.06
2018-04-10T05:29:57.635Z,50.29
2018-04-10T05:32:26.132Z,47.93
2018-04-10T05:34:54.936Z,51.36
2018-04-10T05:37:22.963Z,48.06
2018-04-10T05:39:51.044Z,48.67
2018-04-10T05:42:19.034Z,46.92
2018-04-10T05:44:47.059Z,51.25
2018-04-10T05:47:15.026Z,48.83
2018-04-10T05:49:43.045Z,46.85
2018-04-10T05:52:11.274Z,48.34
2018-04-10T05:54:39.750Z,45.32
2018-04-10T05:57:08.485Z,46.06
2018-04-10T05:59:37.157Z,45.24
2018-04-10T06:02:05.737Z,45.14
2018-04-10T06:04:34.237Z,47.10
2018-04-10T06:07:02.905Z,46.79
2018-04-10T06:09:31.763Z,46.34
2018-04-10T06:12:00.519Z,45.32
2018-04-10T06:14:29.189Z,45.08
2018-04-10T06:16:57.408Z,43.75
2018-04-10T06:19:25.470Z,42.67
2018-04-10T06:21:53.496Z,43.87
2018-04-10T06:24:21.503Z,43.53
2018-04-10T06:26:49.621Z,42.64
2018-04-10T06:29:17.579Z,43.21
2018-04-10T06:31:45.523Z,44.27
2018-04-10T06:34:13.595Z,41.64
2018-04-10T06:36:41.706Z,39.57
2018-04-10T06:39:09.969Z,37.65
2018-04-10T06:41:37.977Z,37.75
2018-04-10T06:44:05.929Z,37.55
2018-04-10T06:46:33.950Z,36.73
2018-04-10T06:49:01.992Z,36.54
2018-04-10T06:51:29.893Z,35.14
2018-04-10T06:53:57.948Z,34.89
2018-04-10T06:56:25.960Z,32.95
2018-04-10T06:58:53.929Z,33.99
2018-04-10T07:01:21.984Z,35.32
2018-04-10T07:03:50.003Z,32.37
2018-04-10T07:09:16.055Z,32.86
2018-04-10T07:11:44.559Z,29.85
2018-04-10T07:14:12.839Z,31.23
2018-04-10T07:16:40.782Z,30.25
2018-04-10T07:19:08.771Z,29.55
2018-04-10T07:21:36.708Z,30.36
2018-04-10T07:24:04.735Z,30.54
2018-04-10T07:26:32.775Z,30.14
2018-04-10T07:29:00.806Z,30.44
2018-04-10T07:31:28.920Z,29.47
2018-04-10T07:33:56.946Z,31.55
2018-04-10T07:36:24.888Z,30.94
2018-04-10T07:38:53.003Z,30.38
2018-04-10T07:41:21.562Z,29.01
2018-04-10T07:43:49.576Z,28.33
2018-04-10T07:46:17.584Z,27.56
2018-04-10T07:48:45.576Z,28.83
2018-04-10T07:51:13.545Z,27.75
2018-04-10T07:53:41.534Z,28.39
2018-04-10T07:56:09.502Z,28.87
2018-04-10T07:58:37.533Z,26.64
2018-04-10T08:01:05.581Z,27.13
2018-04-10T08:03:33.566Z,27.50
2018-04-10T08:06:01.551Z,27.84
2018-04-10T08:08:29.623Z,28.81
2018-04-10T08:10:57.632Z,27.37
2018-04-10T08:13:26.429Z,25.86
2018-04-10T08:15:54.381Z,26.47
2018-04-10T08:18:22.373Z,26.34
2018-04-10T08:20:50.351Z,24.85
2018-04-10T08:23:18.402Z,26.23
2018-04-10T08:25:46.424Z,25.31
2018-04-10T08:28:14.446Z,26.01
2018-04-10T08:30:42.436Z,25.44
2018-04-10T08:33:10.432Z,25.86
2018-04-10T08:35:38.446Z,24.48
2018-04-10T08:38:06.433Z,23.79
2018-04-10T08:40:34.409Z,23.36
2018-04-10T08:43:02.528Z,23.94
2018-04-10T08:45:30.576Z,22.13
2018-04-10T08:47:58.582Z,22.10
2018-04-10T08:50:26.571Z,23.62
2018-04-10T08:52:54.525Z,21.44
2018-04-10T08:55:22.516Z,19.57
2018-04-10T08:57:50.519Z,19.96
2018-04-10T09:00:18.537Z,21.16
2018-04-10T09:02:46.591Z,20.62
2018-04-10T09:05:14.584Z,19.90
2018-04-10T09:07:42.601Z,18.42
2018-04-10T09:10:10.626Z,20.25
2018-04-10T09:12:38.616Z,18.49
2018-04-10T09:15:07.235Z,18.14
2018-04-10T09:17:35.176Z,19.22
2018-04-10T09:20:03.171Z,20.52
2018-04-10T09:22:31.224Z,18.87
2018-04-10T09:24:59.259Z,17.58
2018-04-10T09:27:27.199Z,16.98
2018-04-10T09:29:55.246Z,17.91
2018-04-10T09:32:23.250Z,17.87
2018-04-10T09:34:51.242Z,17.95
2018-04-10T09:37:19.349Z,16.65
2018-04-10T09:39:47.396Z,19.08
2018-04-10T09:42:15.479Z,19.86
2018-04-10T09:44:43.545Z,19.46
2018-04-10T09:47:11.497Z,18.80
2018-04-10T09:49:39.520Z,18.61
2018-04-10T09:52:07.496Z,17.02
2018-04-10T09:54:35.516Z,16.41
2018-04-10T09:57:03.472Z,16.65
2018-04-10T09:59:31.440Z,16.10
2018-04-10T10:01:59.444Z,16.14
2018-04-10T10:04:27.528Z,16.22
2018-04-10T10:06:55.569Z,15.80
2018-04-10T10:09:23.589Z,15.94
2018-04-10T10:11:51.689Z,16.41
2018-04-10T10:14:19.585Z,15.90
2018-04-10T10:16:48.264Z,16.95
2018-04-10T10:19:16.217Z,15.38
2018-04-10T10:21:44.265Z,15.55
2018-04-10T10:24:12.293Z,15.26
2018-04-10T10:26:40.306Z,17.97
2018-04-10T10:29:08.329Z,16.72
2018-04-10T10:31:36.342Z,16.97
2018-04-10T10:34:04.322Z,16.94
2018-04-10T10:36:32.282Z,16.61
2018-04-10T10:39:00.345Z,15.06
2018-04-10T10:41:28.470Z,15.08
2018-04-10T10:43:56.453Z,15.98
2018-04-10T10:46:24.525Z,16.83
2018-04-10T10:48:52.557Z,16.13
2018-04-10T10:51:20.597Z,14.57
2018-04-10T10:53:48.711Z,13.91
2018-04-10T10:56:16.754Z,14.67
2018-04-10T10:58:44.732Z,14.82
2018-04-10T11:01:12.761Z,15.21
2018-04-10T11:03:40.821Z,15.89
2018-04-10T11:06:08.815Z,15.62
2018-04-10T11:08:36.852Z,14.67
2018-04-10T11:11:04.786Z,14.17
2018-04-10T11:13:32.784Z,14.31
2018-04-10T11:16:00.807Z,14.95
2018-04-10T11:18:29.318Z,15.36
2018-04-10T11:20:57.353Z,14.73
2018-04-10T11:23:25.378Z,15.24
2018-04-10T11:25:53.396Z,14.81
2018-04-10T11:28:21.419Z,15.39
2018-04-10T11:30:49.372Z,14.31
2018-04-10T11:33:17.367Z,13.65
2018-04-10T11:35:45.374Z,13.38
2018-04-10T11:38:13.403Z,15.76
2018-04-10T11:40:41.415Z,13.12
2018-04-10T11:43:09.483Z,14.43
2018-04-10T11:45:37.509Z,14.04
2018-04-10T11:48:05.550Z,13.60
2018-04-10T11:50:33.675Z,13.63
2018-04-10T11:53:01.712Z,14.26
2018-04-10T11:55:29.695Z,13.54
2018-04-10T11:57:57.704Z,14.38
2018-04-10T12:00:25.758Z,15.02
2018-04-10T12:02:53.777Z,16.02
2018-04-10T12:05:21.814Z,15.54
2018-04-10T12:07:49.821Z,16.03
2018-04-10T12:10:17.856Z,16.61
2018-04-10T12:12:45.881Z,16.49
2018-04-10T12:15:13.851Z,15.16
2018-04-10T12:17:41.874Z,15.64
2018-04-10T12:20:10.389Z,14.97
2018-04-10T12:22:38.452Z,14.09
2018-04-10T12:25:06.538Z,16.04
2018-04-10T12:27:34.569Z,16.75
2018-04-10T12:30:02.558Z,16.71
2018-04-10T12:32:30.577Z,17.41
2018-04-10T12:34:58.655Z,18.04
2018-04-10T12:37:26.669Z,18.37
2018-04-10T12:39:54.605Z,17.59
2018-04-10T12:42:22.694Z,17.70
2018-04-10T12:44:50.729Z,17.72
2018-04-10T12:47:18.692Z,17.42
2018-04-10T12:49:46.706Z,17.39
2018-04-10T12:52:14.758Z,17.84
2018-04-10T12:54:42.782Z,17.36
2018-04-10T12:57:10.769Z,17.25
2018-04-10T12:59:38.727Z,16.33
2018-04-10T13:02:06.885Z,18.06
2018-04-10T13:04:34.988Z,17.49
2018-04-10T13:07:02.965Z,17.34
2018-04-10T13:09:30.970Z,16.94
2018-04-10T13:11:58.973Z,18.01
2018-04-10T13:14:26.966Z,18.45
2018-04-10T13:16:54.965Z,18.46
2018-04-10T13:19:22.947Z,18.18
2018-04-10T13:21:51.301Z,18.21
2018-04-10T13:24:19.375Z,18.53
2018-04-10T13:26:47.368Z,17.65
2018-04-10T13:29:15.403Z,18.05
2018-04-10T13:31:43.471Z,17.37
2018-04-10T13:34:11.464Z,18.13
2018-04-10T13:36:39.456Z,17.46
2018-04-10T13:39:07.462Z,17.10
2018-04-10T13:41:35.509Z,17.73
2018-04-10T13:44:03.479Z,16.48
2018-04-10T13:46:31.472Z,16.00
2018-04-10T13:48:59.495Z,15.93
2018-04-10T13:51:27.540Z,15.70
2018-04-10T13:53:55.526Z,16.11
2018-04-10T13:56:23.511Z,16.51
2018-04-10T13:58:51.591Z,17.30
2018-04-10T14:01:19.636Z,17.00
2018-04-10T14:03:47.813Z,15.71
2018-04-10T14:06:15.783Z,15.66
2018-04-10T14:08:43.875Z,15.64
2018-04-10T14:11:11.910Z,16.21
2018-04-10T14:13:39.891Z,16.20
2018-04-10T14:16:07.923Z,16.57
2018-04-10T14:18:35.902Z,15.63
2018-04-10T14:21:03.923Z,16.64
2018-04-10T14:23:32.486Z,17.01
2018-04-10T14:26:00.589Z,16.56
2018-04-10T14:28:28.590Z,17.12
2018-04-10T14:30:56.673Z,16.55
2018-04-10T14:33:24.730Z,16.81
2018-04-10T14:35:52.775Z,17.46
2018-04-10T14:38:20.794Z,17.92
2018-04-10T14:40:48.745Z,17.39
2018-04-10T14:43:16.772Z,19.09
2018-04-10T14:45:44.779Z,18.71
2018-04-10T14:48:12.753Z,18.97
2018-04-10T14:50:40.807Z,19.86
2018-04-10T14:53:09.011Z,19.99
2018-04-10T14:55:37.155Z,19.82
2018-04-10T14:58:05.264Z,19.85
2018-04-10T15:00:33.325Z,18.97
2018-04-10T15:03:01.500Z,19.23
2018-04-10T15:05:29.490Z,19.40
2018-04-10T15:07:57.566Z,20.22
2018-04-10T15:10:25.659Z,20.46
2018-04-10T15:12:53.710Z,20.99
2018-04-10T15:15:21.802Z,20.98
2018-04-10T15:17:49.808Z,22.86
2018-04-10T15:20:17.815Z,23.13
2018-04-10T15:22:45.893Z,22.99
2018-04-10T15:25:14.275Z,22.40
2018-04-10T15:27:42.345Z,22.67
2018-04-10T15:30:10.365Z,22.61
2018-04-10T15:32:38.440Z,22.88
2018-04-10T15:35:06.620Z,23.53
2018-04-10T15:37:34.649Z,24.93
2018-04-10T15:40:02.708Z,25.02
2018-04-10T15:42:30.702Z,24.74
2018-04-10T15:44:58.686Z,25.37
2018-04-10T15:47:26.662Z,25.50
2018-04-10T15:49:54.724Z,25.25
2018-04-10T15:52:22.724Z,25.12
2018-04-10T15:54:50.736Z,24.88
2018-04-10T15:57:18.827Z,24.94
2018-04-10T15:59:46.901Z,24.67
2018-04-10T16:02:15.223Z,25.54
2018-04-10T16:04:43.242Z,25.34
2018-04-10T16:07:11.330Z,25.38
2018-04-10T16:09:39.293Z,26.11
2018-04-10T16:12:07.377Z,26.37
2018-04-10T16:14:35.408Z,26.46
2018-04-10T16:17:03.435Z,25.67
2018-04-10T16:19:31.541Z,26.76
2018-04-10T16:21:59.578Z,27.55
2018-04-10T16:24:27.715Z,29.96
2018-04-10T16:26:56.144Z,31.72
2018-04-10T16:29:24.194Z,31.16
2018-04-10T16:31:52.178Z,30.72
2018-04-10T16:34:20.207Z,31.11
2018-04-10T16:36:48.246Z,32.39
2018-04-10T16:39:16.332Z,31.16
2018-04-10T16:41:44.388Z,30.33
2018-04-10T16:44:12.457Z,31.15
2018-04-10T16:46:40.530Z,30.64
2018-04-10T16:49:08.586Z,30.45
2018-04-10T16:51:36.582Z,30.47
2018-04-10T16:54:04.656Z,30.94
2018-04-10T16:56:32.723Z,31.52
2018-04-10T16:59:00.816Z,31.60
2018-04-10T17:01:28.849Z,31.54
2018-04-10T17:03:56.929Z,31.85
2018-04-10T17:06:24.917Z,32.35
2018-04-10T17:08:52.970Z,32.75
2018-04-10T17:11:21.007Z,32.87
2018-04-10T17:13:49.034Z,32.66
2018-04-10T17:16:17.098Z,32.62
2018-04-10T17:18:45.109Z,33.05
2018-04-10T17:21:13.171Z,33.48
2018-04-10T17:23:41.290Z,32.98
2018-04-10T17:26:09.347Z,33.83
2018-04-10T17:28:37.676Z,33.85
2018-04-10T17:31:05.726Z,33.98
2018-04-10T17:33:33.752Z,34.26
2018-04-10T17:36:01.829Z,34.68
2018-04-10T17:38:29.838Z,34.79
2018-04-10T17:40:57.868Z,34.56
2018-04-10T17:43:25.986Z,34.82
2018-04-10T17:45:54.057Z,35.33
2018-04-10T17:48:22.068Z,35.27
2018-04-10T17:50:50.135Z,35.30
2018-04-10T17:53:18.251Z,35.43
2018-04-10T17:55:46.303Z,35.24
2018-04-10T17:58:14.346Z,35.26
2018-04-10T18:00:42.327Z,36.61
2018-04-10T18:03:10.393Z,36.68
2018-04-10T18:05:38.480Z,36.20
2018-04-10T18:08:06.551Z,36.30
2018-04-10T18:10:34.566Z,35.95
2018-04-10T18:13:02.531Z,35.91
2018-04-10T18:15:30.545Z,35.47
2018-04-10T18:17:58.542Z,35.43
2018-04-10T18:20:26.596Z,35.88
2018-04-10T18:22:54.580Z,35.71
2018-04-10T18:25:22.620Z,36.21
2018-04-10T18:27:50.704Z,36.36
2018-04-10T18:30:19.065Z,36.06
2018-04-10T18:32:47.090Z,36.01
2018-04-10T18:35:15.021Z,36.54
2018-04-10T18:37:43.090Z,37.44
2018-04-10T18:40:11.093Z,36.27
2018-04-10T18:42:39.160Z,35.99
2018-04-10T18:45:07.102Z,37.35
2018-04-10T18:47:35.121Z,37.53
2018-04-10T18:50:03.148Z,36.79
2018-04-10T18:52:31.110Z,37.03
2018-04-10T18:54:59.071Z,38.26
2018-04-10T18:57:27.073Z,38.89
2018-04-10T18:59:55.205Z,37.76
2018-04-10T19:02:23.289Z,37.44
2018-04-10T19:04:51.307Z,37.47
2018-04-10T19:07:19.323Z,37.30
2018-04-10T19:09:47.394Z,37.93
2018-04-10T19:12:15.413Z,37.71
2018-04-10T19:14:43.473Z,37.73
2018-04-10T19:17:11.471Z,37.47
2018-04-10T19:19:39.555Z,38.20
2018-04-10T19:22:07.671Z,37.12
2018-04-10T19:24:35.655Z,36.79
2018-04-10T19:27:03.730Z,36.36
2018-04-10T19:29:31.817Z,37.70
2018-04-10T19:32:00.075Z,37.43
2018-04-10T19:34:28.151Z,37.09
2018-04-10T19:36:56.180Z,37.39
2018-04-10T19:39:24.208Z,37.74
2018-04-10T19:41:52.258Z,38.46
2018-04-10T19:44:20.240Z,37.63
2018-04-10T19:46:48.270Z,37.97
2018-04-10T19:49:16.331Z,38.17
2018-04-10T19:51:44.417Z,39.65
2018-04-10T19:54:12.434Z,39.71
2018-04-10T19:56:40.480Z,40.39
2018-04-10T19:59:08.509Z,41.99
2018-04-10T20:01:36.501Z,39.86
2018-04-10T20:04:04.552Z,38.90
2018-04-10T20:06:32.621Z,38.81
2018-04-10T20:09:00.657Z,39.45
2018-04-10T20:11:28.728Z,37.61
2018-04-10T20:13:56.729Z,38.28
2018-04-10T20:16:24.862Z,38.64
2018-04-10T20:18:52.858Z,40.09
2018-04-10T20:21:20.959Z,40.02
2018-04-10T20:23:49.058Z,39.82
2018-04-10T20:26:17.148Z,40.69
2018-04-10T20:28:45.111Z,39.74
2018-04-10T20:31:13.136Z,40.91
2018-04-10T20:33:41.452Z,40.02
2018-04-10T20:36:09.463Z,40.78
2018-04-10T20:38:37.527Z,41.00
2018-04-10T20:41:05.527Z,40.06
2018-04-10T20:43:33.547Z,40.66
2018-04-10T20:46:01.531Z,39.90
2018-04-10T20:48:29.593Z,39.54
2018-04-10T20:50:57.592Z,37.85
2018-04-10T20:53:25.585Z,37.80
2018-04-10T20:55:53.573Z,37.29
2018-04-10T20:58:21.607Z,37.55
2018-04-10T21:00:49.760Z,37.69
2018-04-10T21:03:17.804Z,37.75
2018-04-10T21:05:45.787Z,39.02
2018-04-10T21:08:13.755Z,39.14
2018-04-10T21:10:41.721Z,41.30
2018-04-10T21:13:09.751Z,39.28
2018-04-10T21:15:37.732Z,38.86
2018-04-10T21:18:05.746Z,39.61
2018-04-10T21:20:33.758Z,41.14
2018-04-10T21:23:01.722Z,41.48
2018-04-10T21:25:29.693Z,40.51
2018-04-10T21:27:57.701Z,39.68
2018-04-10T21:30:25.705Z,39.13
2018-04-10T21:32:53.721Z,38.68
2018-04-10T21:35:22.140Z,38.73
2018-04-10T21:37:50.117Z,38.92
2018-04-10T21:40:18.095Z,41.45
2018-04-10T21:42:51.784Z,41.97
2018-04-10T21:45:19.790Z,40.30
2018-04-10T21:47:47.856Z,40.72
2018-04-10T21:50:15.810Z,39.67
2018-04-10T21:52:43.827Z,39.99
2018-04-10T21:55:11.922Z,39.86
2018-04-10T21:57:40.073Z,39.96
2018-04-10T22:00:08.077Z,40.62
2018-04-10T22:02:36.101Z,41.44
2018-04-10T22:05:04.166Z,40.24
2018-04-10T22:07:32.159Z,40.40
2018-04-10T22:10:00.191Z,39.75
2018-04-10T22:12:28.214Z,40.09
2018-04-10T22:14:56.194Z,40.44
2018-04-10T22:17:24.172Z,42.34
2018-04-10T22:19:52.170Z,41.75
2018-04-10T22:22:20.202Z,41.85
2018-04-10T22:24:48.245Z,41.50
2018-04-10T22:27:16.282Z,42.27
2018-04-10T22:29:44.265Z,42.19
2018-04-10T22:32:12.218Z,41.94
2018-04-10T22:34:40.271Z,42.25
2018-04-10T22:37:08.642Z,42.39
2018-04-10T22:39:36.656Z,42.13
2018-04-10T22:42:04.703Z,42.59
2018-04-10T22:44:32.774Z,43.75
2018-04-10T22:47:00.801Z,43.26
2018-04-10T22:49:28.870Z,43.44
2018-04-10T22:51:56.906Z,43.59
2018-04-10T22:54:25.926Z,44.10
2018-04-10T22:56:53.985Z,43.97
2018-04-10T22:59:21.947Z,43.99
2018-04-10T23:01:49.955Z,43.63
2018-04-10T23:04:17.974Z,43.35
2018-04-10T23:06:45.994Z,43.40
2018-04-10T23:09:14.027Z,43.18
2018-04-10T23:11:42.115Z,43.52
2018-04-10T23:14:10.150Z,43.33
2018-04-10T23:16:38.114Z,43.91
2018-04-10T23:19:06.123Z,44.84
2018-04-10T23:21:34.120Z,45.78
2018-04-10T23:24:02.183Z,44.68
2018-04-10T23:26:30.202Z,44.47
2018-04-10T23:28:58.138Z,45.51
2018-04-10T23:31:26.143Z,45.71
2018-04-10T23:33:54.262Z,47.63
2018-04-10T23:36:22.268Z,45.46
2018-04-10T23:38:50.945Z,45.13
2018-04-10T23:41:18.997Z,45.17
2018-04-10T23:43:47.123Z,45.14
2018-04-10T23:46:15.173Z,44.66
2018-04-10T23:48:43.205Z,45.74
2018-04-10T23:51:11.241Z,46.02
2018-04-10T23:53:39.277Z,46.54
2018-04-10T23:56:07.291Z,48.58
2018-04-10T23:58:35.352Z,47.07
